Time;durP1;ratioP1;P1;durP2;ratioP2;P2;SDS_P1;SDS_P2;PMS_P1;PMS_P2;Temp;Humidity;BMP_temperature;BMP_pressure;BME280_temperature;BME280_humidity;BME280_pressure;Samples;Min_cycle;Max_cycle;Signal;HPM_P1;HPM_P2
2024/03/08 00:05:23;;;;;;;19.7;11.7;;;;;;;1.61;80.82;99310;;;;
2024/03/08 00:16:23;;;;;;;19.7;11.7;;;;;;;1.57;80.97;99306.666666667;;;;
2024/03/08 00:27:22;;;;;;;20.3;11.1;;;;;;;1.51;81.04;99300;;;;
2024/03/08 00:37:22;;;;;;;20.3;11.1;;;;;;;1.67;80.19;99293.333333333;;;;
2024/03/08 00:47:22;;;;;;;20.3;11.1;;;;;;;1.66;79.74;99290;;;;
2024/03/08 00:57:22;;;;;;;16.7;9.7;;;;;;;1.59;79.79;99280;;;;
2024/03/08 01:08:23;;;;;;;16.7;9.7;;;;;;;1.61;79.58;99280;;;;
2024/03/08 01:18:22;;;;;;;16.7;9.7;;;;;;;1.65;79.1;99273.333333333;;;;
2024/03/08 01:29:22;;;;;;;18.4;9.1;;;;;;;1.54;78.91;99255;;;;
2024/03/08 01:40:22;;;;;;;18.4;9.1;;;;;;;1.57;78.9;99253.333333333;;;;
2024/03/08 01:51:22;;;;;;;18.4;9.1;;;;;;;1.66;78.55;99251.666666667;;;;
2024/03/08 02:01:22;;;;;;;18.8;11.5;;;;;;;1.44;78.8;99240;;;;
2024/03/08 02:12:22;;;;;;;18.8;11.5;;;;;;;1.47;78.64;99233.333333333;;;;
2024/03/08 02:23:23;;;;;;;20.7;11.3;;;;;;;1.51;78.68;99226.666666667;;;;
2024/03/08 02:33:22;;;;;;;20.7;11.3;;;;;;;1.53;78.67;99225;;;;
2024/03/08 02:44:23;;;;;;;20.7;11.3;;;;;;;1.5;78.46;99228.333333333;;;;
2024/03/08 02:55:22;;;;;;;17.5;10.1;;;;;;;1.54;78.5;99235;;;;
2024/03/08 03:05:22;;;;;;;17.5;10.1;;;;;;;1.51;78.57;99233.333333333;;;;
2024/03/08 03:15:22;;;;;;;17.5;10.1;;;;;;;1.58;78.1;99226.666666667;;;;
2024/03/08 03:25:24;;;;;;;18;10.8;;;;;;;1.57;78.24;99230;;;;
2024/03/08 03:36:24;;;;;;;18;10.8;;;;;;;1.47;78.61;99230;;;;
2024/03/08 03:46:22;;;;;;;18;10.8;;;;;;;1.46;78.61;99230;;;;
2024/03/08 03:56:23;;;;;;;22.8;10.9;;;;;;;1.39;78.51;99228.333333333;;;;
2024/03/08 04:06:23;;;;;;;22.8;10.9;;;;;;;1.27;78.69;99226.666666667;;;;
2024/03/08 04:17:24;;;;;;;22.8;10.9;;;;;;;1.15;78.99;99220;;;;
2024/03/08 04:28:22;;;;;;;18;10.3;;;;;;;0.98;79.64;99221.666666667;;;;
2024/03/08 04:38:22;;;;;;;18;10.3;;;;;;;1.19;79.38;99225;;;;
2024/03/08 04:49:22;;;;;;;18;10.3;;;;;;;1.11;79.16;99230;;;;
2024/03/08 04:59:23;;;;;;;19.8;11;;;;;;;1.14;79.38;99235;;;;
2024/03/08 05:10:22;;;;;;;19.8;11;;;;;;;1.02;79.32;99238.333333333;;;;
2024/03/08 05:21:23;;;;;;;19;10.7;;;;;;;0.9;79.86;99236.666666667;;;;
2024/03/08 05:31:22;;;;;;;19;10.7;;;;;;;0.89;79.7;99238.333333333;;;;
2024/03/08 05:41:22;;;;;;;19;10.7;;;;;;;0.92;79.61;99238.333333333;;;;
2024/03/08 05:51:22;;;;;;;20.7;10.7;;;;;;;1.05;78.93;99240;;;;
2024/03/08 06:02:22;;;;;;;20.7;10.7;;;;;;;1.06;79.17;99241.666666667;;;;
2024/03/08 06:12:24;;;;;;;20.7;10.7;;;;;;;1.22;79.36;99246.666666667;;;;
2024/03/08 06:23:22;;;;;;;19.6;11.6;;;;;;;1.23;78.93;99241.666666667;;;;
2024/03/08 06:34:22;;;;;;;19.6;11.6;;;;;;;1.5;78.7;99243.333333333;;;;
2024/03/08 06:44:22;;;;;;;19.6;11.6;;;;;;;1.64;78.45;99246.666666667;;;;
2024/03/08 06:55:22;;;;;;;18.1;11.1;;;;;;;1.51;78.51;99248.333333333;;;;
2024/03/08 07:05:24;;;;;;;18.1;11.1;;;;;;;1.42;78.49;99243.333333333;;;;
2024/03/08 07:15:23;;;;;;;18.1;11.1;;;;;;;1.35;78.68;99230;;;;
2024/03/08 07:25:23;;;;;;;23.9;12.4;;;;;;;1.64;78.57;99237.5;;;;
2024/03/08 07:36:22;;;;;;;23.9;12.4;;;;;;;1.73;78.38;99237.5;;;;
2024/03/08 07:47:22;;;;;;;23.9;12.4;;;;;;;1.91;78.22;99237.5;;;;
2024/03/08 07:57:23;;;;;;;19.5;10.3;;;;;;;2;76.92;99235;;;;
2024/03/08 08:08:22;;;;;;;19.5;10.3;;;;;;;1.96;77.41;99227.5;;;;
2024/03/08 08:18:25;;;;;;;19.5;10.3;;;;;;;2.14;77.11;99227.5;;;;
2024/03/08 08:29:22;;;;;;;17.9;10.7;;;;;;;2.09;76.35;99227.5;;;;
2024/03/08 08:39:23;;;;;;;17.9;10.7;;;;;;;1.95;76.84;99225;;;;
2024/03/08 08:49:23;;;;;;;17.9;10.7;;;;;;;2.45;75.97;99227.5;;;;
2024/03/08 09:00:26;;;;;;;20.7;11.8;;;;;;;2.37;75.41;99230;;;;
2024/03/08 09:10:23;;;;;;;20.7;11.8;;;;;;;2.54;76.34;99222.5;;;;
2024/03/08 09:21:24;;;;;;;23;11.5;;;;;;;2.78;75.14;99228;;;;
2024/03/08 09:32:22;;;;;;;23;11.5;;;;;;;2.82;74.76;99220;;;;
2024/03/08 09:42:23;;;;;;;23;11.5;;;;;;;2.97;74.31;99220;;;;
2024/03/08 09:53:22;;;;;;;19.7;12.7;;;;;;;3.1;74.32;99214;;;;
2024/03/08 10:04:23;;;;;;;19.7;12.7;;;;;;;3.18;73.33;99210;;;;
2024/03/08 10:15:24;;;;;;;19.7;12.7;;;;;;;3.27;73.18;99208;;;;
2024/03/08 10:26:23;;;;;;;20.8;11.6;;;;;;;3.65;72.93;99214;;;;
2024/03/08 10:36:23;;;;;;;20.8;11.6;;;;;;;3.96;73.33;99208;;;;
2024/03/08 10:46:23;;;;;;;20.8;11.6;;;;;;;3.72;72.32;99202;;;;
2024/03/08 10:56:23;;;;;;;26.3;13.3;;;;;;;4.01;71.94;99190;;;;
2024/03/08 11:06:23;;;;;;;26.3;13.3;;;;;;;4.64;69.97;99180;;;;
2024/03/08 11:17:23;;;;;;;26.3;13.3;;;;;;;4.43;69.97;99180;;;;
2024/03/08 11:28:22;;;;;;;22.4;13.6;;;;;;;4.4;70.66;99167.5;;;;
2024/03/08 11:38:23;;;;;;;22.4;13.6;;;;;;;4.77;69.94;99162.5;;;;
2024/03/08 11:49:23;;;;;;;22.4;13.6;;;;;;;4.69;69.9;99150;;;;
2024/03/08 11:59:23;;;;;;;23.6;12;;;;;;;5.35;68.85;99155;;;;
2024/03/08 12:10:23;;;;;;;23.6;12;;;;;;;4.99;69.25;99142.5;;;;
2024/03/08 12:21:25;;;;;;;22.7;13.9;;;;;;;5.38;70.3;99132.5;;;;
2024/03/08 12:31:25;;;;;;;22.7;13.9;;;;;;;5.51;68.35;99122.5;;;;
2024/03/08 12:42:23;;;;;;;22.7;13.9;;;;;;;5.55;67.87;99115;;;;
2024/03/08 12:53:23;;;;;;;20;12.5;;;;;;;5.9;71.11;99102.5;;;;
2024/03/08 13:03:23;;;;;;;20;12.5;;;;;;;5.79;66.31;99087.5;;;;
2024/03/08 13:14:23;;;;;;;20;12.5;;;;;;;5.89;66.34;99077.5;;;;
2024/03/08 13:24:23;;;;;;;19;12.5;;;;;;;6.14;65.56;99065;;;;
2024/03/08 13:34:29;;;;;;;19;12.5;;;;;;;6.12;64.21;99057.5;;;;
2024/03/08 13:45:23;;;;;;;19;12.5;;;;;;;5.95;65.56;99047.5;;;;
2024/03/08 13:56:22;;;;;;;22.5;12.4;;;;;;;6.18;65.27;99040;;;;
2024/03/08 14:06:25;;;;;;;22.5;12.4;;;;;;;5.76;66;99032.5;;;;
2024/03/08 14:16:23;;;;;;;22.5;12.4;;;;;;;6.02;66.43;99030;;;;
2024/03/08 14:26:23;;;;;;;20.9;12.3;;;;;;;6.46;65.5;99020;;;;
2024/03/08 14:37:27;;;;;;;20.9;12.3;;;;;;;6.38;65.72;99025;;;;
2024/03/08 14:47:23;;;;;;;20.9;12.3;;;;;;;6.48;65.9;99021.666666667;;;;
2024/03/08 14:57:23;;;;;;;21.4;13.6;;;;;;;6.29;65.3;99016.666666667;;;;
2024/03/08 15:08:24;;;;;;;21.4;13.6;;;;;;;6.17;67.93;99005;;;;
2024/03/08 15:18:25;;;;;;;21.4;13.6;;;;;;;5.85;66.88;99001.666666667;;;;
2024/03/08 15:29:26;;;;;;;19.5;12.5;;;;;;;5.85;67.79;98998.333333333;;;;
2024/03/08 15:39:24;;;;;;;19.5;12.5;;;;;;;5.53;68.33;98991.666666667;;;;
2024/03/08 15:49:24;;;;;;;19.5;12.5;;;;;;;5.27;68.47;98986.666666667;;;;
2024/03/08 16:00:33;;;;;;;22;12.6;;;;;;;4.84;69.46;98991.666666667;;;;
2024/03/08 16:11:23;;;;;;;22;12.6;;;;;;;4.36;70.79;98988.333333333;;;;
2024/03/08 16:22:23;;;;;;;19.5;11.8;;;;;;;3.91;72.14;98986.666666667;;;;
2024/03/08 16:32:23;;;;;;;19.5;11.8;;;;;;;3.38;73.11;98990;;;;
2024/03/08 16:43:23;;;;;;;19.5;11.8;;;;;;;2.88;74.69;98986.666666667;;;;
2024/03/08 16:53:23;;;;;;;30.5;12.9;;;;;;;2.59;76.15;98983.333333333;;;;
2024/03/08 17:04:23;;;;;;;30.5;12.9;;;;;;;2.25;77.2;98985;;;;
2024/03/08 17:14:23;;;;;;;30.5;12.9;;;;;;;2;78.96;98978.333333333;;;;
2024/03/08 17:25:24;;;;;;;22.4;11.1;;;;;;;1.7;79.53;98973.333333333;;;;
2024/03/08 17:35:23;;;;;;;22.4;11.1;;;;;;;1.55;80.47;98975;;;;
2024/03/08 17:46:23;;;;;;;22.4;11.1;;;;;;;1.35;81.56;98970;;;;
2024/03/08 17:57:23;;;;;;;30.8;15.4;;;;;;;1.19;82.15;98966.666666667;;;;
2024/03/08 18:07:23;;;;;;;30.8;15.4;;;;;;;1.03;82.58;98963.333333333;;;;
2024/03/08 18:17:23;;;;;;;30.8;15.4;;;;;;;0.89;82.31;98965;;;;
2024/03/08 18:28:23;;;;;;;30.8;17.9;;;;;;;0.72;82.77;98966.666666667;;;;
2024/03/08 18:39:26;;;;;;;30.8;17.9;;;;;;;0.59;83.27;98960;;;;
2024/03/08 18:49:23;;;;;;;28.2;17.6;;;;;;;0.48;83.81;98948.333333333;;;;
2024/03/08 19:00:27;;;;;;;28.2;17.6;;;;;;;0.36;83.93;98943.333333333;;;;
2024/03/08 19:11:23;;;;;;;28.2;17.6;;;;;;;0.25;84.28;98946.666666667;;;;
2024/03/08 19:21:24;;;;;;;34.5;16.7;;;;;;;0.22;84.9;98945;;;;
2024/03/08 19:32:23;;;;;;;34.5;16.7;;;;;;;0.14;84.68;98943.333333333;;;;
2024/03/08 19:42:24;;;;;;;34.5;16.7;;;;;;;0.07;85.76;98941.666666667;;;;
2024/03/08 19:52:23;;;;;;;28.6;17;;;;;;;0.07;85.84;98933.333333333;;;;
2024/03/08 20:03:23;;;;;;;28.6;17;;;;;;;0.03;85.95;98931.666666667;;;;
2024/03/08 20:13:23;;;;;;;28.6;17;;;;;;;0;85.74;98928.333333333;;;;
2024/03/08 20:24:23;;;;;;;33.1;19;;;;;;;-0.06;85.91;98928.333333333;;;;
2024/03/08 20:35:24;;;;;;;33.1;19;;;;;;;-0.12;86.23;98920;;;;
2024/03/08 20:46:23;;;;;;;33.1;19;;;;;;;-0.16;86.68;98908.333333333;;;;
2024/03/08 20:56:24;;;;;;;29.9;17.7;;;;;;;-0.2;86.87;98905;;;;
2024/03/08 21:07:23;;;;;;;29.9;17.7;;;;;;;-0.22;86.9;98905;;;;
2024/03/08 21:17:23;;;;;;;29.9;17.7;;;;;;;-0.27;86.7;98900;;;;
2024/03/08 21:27:23;;;;;;;36.4;19.8;;;;;;;-0.43;86.14;98891.666666667;;;;
2024/03/08 21:37:23;;;;;;;36.4;19.8;;;;;;;-0.65;85.57;98886.666666667;;;;
2024/03/08 21:48:23;;;;;;;36.4;19.8;;;;;;;-0.84;85.64;98880;;;;
2024/03/08 21:59:23;;;;;;;36.8;18.7;;;;;;;-1.05;86.41;98870;;;;
2024/03/08 22:10:25;;;;;;;36.8;18.7;;;;;;;-1.18;86.96;98866.666666667;;;;
2024/03/08 22:20:26;;;;;;;33.9;20.9;;;;;;;-1.2;87.05;98858.333333333;;;;
2024/03/08 22:31:24;;;;;;;33.9;20.9;;;;;;;-1.21;87.41;98851.666666667;;;;
2024/03/08 22:41:26;;;;;;;33.9;20.9;;;;;;;-1.28;87.11;98855;;;;
2024/03/08 22:52:23;;;;;;;36.5;20.5;;;;;;;-1.4;87.45;98848.333333333;;;;
2024/03/08 23:03:23;;;;;;;36.5;20.5;;;;;;;-1.5;87.73;98846.666666667;;;;
2024/03/08 23:13:24;;;;;;;36.5;20.5;;;;;;;-1.58;87.58;98841.666666667;;;;
2024/03/08 23:24:24;;;;;;;29.9;20.5;;;;;;;-1.63;87.56;98835;;;;
2024/03/08 23:34:24;;;;;;;29.9;20.5;;;;;;;-1.63;87.94;98836.666666667;;;;
2024/03/08 23:45:23;;;;;;;29.9;20.5;;;;;;;-1.67;88.1;98826.666666667;;;;
2024/03/08 23:55:26;;;;;;;38.6;22.3;;;;;;;-1.72;88.21;98816.666666667;;;;
